Time;durP1;ratioP1;P1;durP2;ratioP2;P2;SDS_P1;SDS_P2;PMS_P1;PMS_P2;Temp;Humidity;BMP_temperature;BMP_pressure;BME280_temperature;BME280_humidity;BME280_pressure;Samples;Min_cycle;Max_cycle;Signal;HPM_P1;HPM_P2
2022/03/13 00:00:51;;;;;;;14.88;8.73;;;;;;;;;;5070167;28;20109;-65
2022/03/13 00:03:18;;;;;;;14.65;8.85;;;;;;;;;;5040306;28;20068;-65
2022/03/13 00:05:46;;;;;;;17.98;9.18;;;;;;;;;;5030792;28;20044;-65
2022/03/13 00:08:23;;;;;;;18.80;9.48;;;;;;;;;;5049250;28;20040;-66
2022/03/13 00:10:56;;;;;;;17.02;9.75;;;;;;;;;;5042277;28;20581;-65
2022/03/13 00:13:51;;;;;;;15.82;9.25;;;;;;;;;;5042304;28;20036;-65
2022/03/13 00:16:18;;;;;;;16.63;8.85;;;;;;;;;;5040849;28;20071;-65
2022/03/13 00:18:47;;;;;;;19.50;8.38;;;;;;;;;;5048431;28;20029;-65
2022/03/13 00:21:14;;;;;;;14.95;8.43;;;;;;;;;;5049872;28;20064;-64
2022/03/13 00:23:41;;;;;;;16.00;8.80;;;;;;;;;;5051419;28;20081;-65
2022/03/13 00:26:07;;;;;;;16.35;8.93;;;;;;;;;;5041601;28;20122;-65
2022/03/13 00:28:32;;;;;;;14.82;8.77;;;;;;;;;;5050377;28;20382;-64
2022/03/13 00:30:58;;;;;;;14.48;8.40;;;;;;;;;;5049317;28;20033;-65
2022/03/13 00:33:24;;;;;;;18.27;8.60;;;;;;;;;;5054958;28;20035;-65
2022/03/13 00:35:49;;;;;;;17.02;8.45;;;;;;;;;;5049804;28;20032;-64
2022/03/13 00:38:15;;;;;;;14.80;8.55;;;;;;;;;;5053450;28;20032;-65
2022/03/13 00:40:41;;;;;;;14.25;8.25;;;;;;;;;;5057425;28;20045;-65
2022/03/13 00:43:07;;;;;;;15.43;8.30;;;;;;;;;;5039144;28;20033;-65
2022/03/13 00:45:33;;;;;;;21.27;8.63;;;;;;;;;;5049838;28;20229;-65
2022/03/13 00:47:59;;;;;;;15.55;8.00;;;;;;;;;;5053635;28;20111;-65
2022/03/13 00:50:25;;;;;;;14.73;8.40;;;;;;;;;;5053551;28;20040;-65
2022/03/13 00:52:51;;;;;;;13.27;8.05;;;;;;;;;;5052948;28;20101;-68
2022/03/13 00:55:16;;;;;;;17.17;8.50;;;;;;;;;;5055542;28;20469;-65
2022/03/13 00:57:45;;;;;;;14.93;8.15;;;;;;;;;;5058561;28;20033;-65
2022/03/13 01:00:11;;;;;;;15.82;8.45;;;;;;;;;;5075229;28;20025;-65
2022/03/13 01:02:38;;;;;;;15.88;8.68;;;;;;;;;;5070173;28;20478;-64
2022/03/13 01:05:04;;;;;;;14.23;8.20;;;;;;;;;;5054535;28;20037;-65
2022/03/13 01:07:29;;;;;;;14.95;8.48;;;;;;;;;;5051478;28;20031;-65
2022/03/13 01:09:55;;;;;;;16.40;8.82;;;;;;;;;;5052211;28;20260;-65
2022/03/13 01:12:20;;;;;;;15.98;8.43;;;;;;;;;;5056248;28;20378;-65
2022/03/13 01:14:46;;;;;;;14.93;8.10;;;;;;;;;;5052472;28;20044;-65
2022/03/13 01:17:12;;;;;;;16.63;8.65;;;;;;;;;;5053338;28;20029;-65
2022/03/13 01:19:37;;;;;;;15.60;9.13;;;;;;;;;;5053214;28;20049;-64
2022/03/13 01:22:03;;;;;;;13.95;7.47;;;;;;;;;;5052274;28;20033;-65
2022/03/13 01:24:33;;;;;;;15.90;8.27;;;;;;;;;;5053736;28;20090;-64
2022/03/13 01:27:02;;;;;;;17.02;8.73;;;;;;;;;;5053693;28;20032;-65
2022/03/13 01:29:30;;;;;;;12.65;7.40;;;;;;;;;;5052820;28;20119;-65
2022/03/13 01:31:55;;;;;;;14.73;7.90;;;;;;;;;;5051268;28;20104;-64
2022/03/13 01:34:36;;;;;;;11.85;7.50;;;;;;;;;;5050661;28;20175;-64
2022/03/13 01:37:08;;;;;;;15.80;8.60;;;;;;;;;;5048783;28;20592;-64
2022/03/13 01:39:34;;;;;;;15.25;8.43;;;;;;;;;;5053710;28;20266;-64
2022/03/13 01:41:59;;;;;;;14.68;7.82;;;;;;;;;;5052922;28;20108;-65
2022/03/13 01:44:26;;;;;;;16.55;7.78;;;;;;;;;;5050957;28;20156;-66
2022/03/13 01:46:52;;;;;;;13.10;7.63;;;;;;;;;;5050660;28;20044;-65
2022/03/13 01:49:18;;;;;;;14.27;7.53;;;;;;;;;;5052718;28;20082;-65
2022/03/13 01:51:43;;;;;;;14.85;7.75;;;;;;;;;;5055639;28;20025;-64
2022/03/13 01:54:11;;;;;;;15.10;7.70;;;;;;;;;;5046109;28;20395;-65
2022/03/13 01:56:37;;;;;;;14.13;8.15;;;;;;;;;;5054207;28;20598;-65
2022/03/13 01:59:04;;;;;;;18.45;8.27;;;;;;;;;;5037296;28;20041;-65
2022/03/13 02:01:30;;;;;;;14.55;8.05;;;;;;;;;;5067158;28;20155;-65
2022/03/13 02:03:56;;;;;;;17.30;7.70;;;;;;;;;;5052559;28;20119;-65
2022/03/13 02:06:29;;;;;;;22.13;7.93;;;;;;;;;;5053984;28;20523;-65
2022/03/13 02:08:55;;;;;;;13.95;8.23;;;;;;;;;;5047254;28;20025;-64
2022/03/13 02:11:36;;;;;;;15.65;7.82;;;;;;;;;;5052383;28;20103;-65
2022/03/13 02:14:03;;;;;;;16.27;7.80;;;;;;;;;;5053205;28;20083;-64
2022/03/13 02:16:29;;;;;;;14.52;8.30;;;;;;;;;;5051946;28;20021;-64
2022/03/13 02:18:56;;;;;;;15.10;8.18;;;;;;;;;;5052575;28;20162;-64
2022/03/13 02:21:27;;;;;;;16.27;7.65;;;;;;;;;;5051791;28;20029;-64
2022/03/13 02:23:55;;;;;;;;;;;;;;;;;;5051106;28;20040;-64
2022/03/13 02:26:20;;;;;;;18.08;8.18;;;;;;;;;;5052632;28;20346;-65
2022/03/13 02:28:51;;;;;;;14.55;8.00;;;;;;;;;;5054738;28;20116;-63
2022/03/13 02:31:22;;;;;;;;;;;;;;;;;;5052457;28;20049;-64
2022/03/13 02:33:51;;;;;;;14.13;7.65;;;;;;;;;;5051226;28;20019;-64
2022/03/13 02:36:39;;;;;;;16.70;8.48;;;;;;;;;;5051882;28;20040;-64
2022/03/13 02:39:06;;;;;;;19.55;8.70;;;;;;;;;;5051768;28;20033;-65
2022/03/13 02:41:32;;;;;;;14.73;7.97;;;;;;;;;;5050703;28;20088;-65
2022/03/13 02:43:58;;;;;;;15.13;8.70;;;;;;;;;;5053000;28;20090;-65
2022/03/13 02:46:42;;;;;;;16.25;9.20;;;;;;;;;;5050913;28;20040;-65
2022/03/13 02:49:08;;;;;;;15.95;8.98;;;;;;;;;;5051068;28;20115;-65
2022/03/13 02:51:33;;;;;;;16.90;8.80;;;;;;;;;;5045338;28;20112;-64
2022/03/13 02:53:59;;;;;;;17.17;9.25;;;;;;;;;;5050822;28;20036;-65
2022/03/13 02:56:24;;;;;;;16.77;9.43;;;;;;;;;;5051144;28;20107;-65
2022/03/13 02:58:49;;;;;;;15.27;8.73;;;;;;;;;;5051638;28;20157;-65
2022/03/13 03:01:15;;;;;;;17.65;9.15;;;;;;;;;;5049661;28;20029;-65
2022/03/13 03:03:40;;;;;;;15.93;9.13;;;;;;;;;;5051525;28;20044;-64
2022/03/13 03:06:05;;;;;;;15.40;8.88;;;;;;;;;;5048427;28;20035;-63
2022/03/13 03:08:31;;;;;;;17.13;8.68;;;;;;;;;;5054842;28;20074;-65
2022/03/13 03:10:56;;;;;;;16.42;9.13;;;;;;;;;;5052994;28;20117;-63
2022/03/13 03:13:22;;;;;;;20.15;9.30;;;;;;;;;;5048331;28;20072;-63
2022/03/13 03:15:47;;;;;;;18.13;9.65;;;;;;;;;;5049961;28;20037;-63
2022/03/13 03:18:12;;;;;;;16.65;9.05;;;;;;;;;;5052092;28;20466;-64
2022/03/13 03:20:39;;;;;;;15.70;8.98;;;;;;;;;;5051477;28;20033;-65
2022/03/13 03:23:05;;;;;;;15.73;9.23;;;;;;;;;;5051865;28;20036;-67
2022/03/13 03:25:31;;;;;;;17.65;9.88;;;;;;;;;;5051711;28;20537;-65
2022/03/13 03:27:58;;;;;;;18.42;9.93;;;;;;;;;;5050432;28;20116;-64
2022/03/13 03:30:27;;;;;;;16.67;9.57;;;;;;;;;;5041022;28;20068;-64
2022/03/13 03:32:53;;;;;;;16.75;8.93;;;;;;;;;;5049414;28;20061;-65
2022/03/13 03:35:20;;;;;;;14.57;8.98;;;;;;;;;;5045496;28;20032;-65
2022/03/13 03:37:47;;;;;;;16.20;9.07;;;;;;;;;;5050165;28;20036;-64
2022/03/13 03:40:13;;;;;;;18.38;9.38;;;;;;;;;;5049432;28;20040;-65
2022/03/13 03:42:39;;;;;;;18.08;9.50;;;;;;;;;;5049928;28;20036;-64
2022/03/13 03:45:06;;;;;;;16.80;8.70;;;;;;;;;;5050101;28;20036;-65
2022/03/13 03:47:31;;;;;;;16.05;8.82;;;;;;;;;;5050640;28;20041;-65
2022/03/13 03:49:56;;;;;;;17.27;9.50;;;;;;;;;;5049222;28;20547;-64
2022/03/13 03:52:22;;;;;;;16.17;9.02;;;;;;;;;;5051442;28;20530;-64
2022/03/13 03:54:47;;;;;;;18.95;9.88;;;;;;;;;;5050450;28;20029;-62
2022/03/13 03:57:13;;;;;;;16.42;8.88;;;;;;;;;;5050974;28;20033;-66
2022/03/13 03:59:38;;;;;;;16.90;8.95;;;;;;;;;;5048576;28;20036;-65
2022/03/13 04:02:04;;;;;;;15.52;9.18;;;;;;;;;;5049078;28;20137;-65
2022/03/13 04:04:29;;;;;;;17.38;8.90;;;;;;;;;;5039944;28;20398;-66
2022/03/13 04:06:55;;;;;;;16.98;9.00;;;;;;;;;;5048200;28;20040;-65
2022/03/13 04:09:20;;;;;;;16.63;9.23;;;;;;;;;;5051674;28;20116;-65
2022/03/13 04:11:47;;;;;;;16.73;9.75;;;;;;;;;;5049462;28;20036;-65
2022/03/13 04:14:13;;;;;;;16.63;9.25;;;;;;;;;;5042292;28;20090;-65
2022/03/13 04:16:38;;;;;;;16.30;8.90;;;;;;;;;;5048373;28;20044;-65
2022/03/13 04:19:04;;;;;;;16.70;8.75;;;;;;;;;;5052950;28;20508;-65
2022/03/13 04:21:29;;;;;;;17.67;9.63;;;;;;;;;;5051253;28;20025;-65
2022/03/13 04:23:55;;;;;;;16.38;9.40;;;;;;;;;;5031886;28;20108;-65
2022/03/13 04:26:22;;;;;;;22.95;9.40;;;;;;;;;;5031285;28;20075;-65
2022/03/13 04:28:49;;;;;;;17.27;9.32;;;;;;;;;;5049549;28;20044;-64
2022/03/13 04:31:15;;;;;;;15.02;8.57;;;;;;;;;;5051855;28;20451;-65
2022/03/13 04:33:41;;;;;;;18.00;9.13;;;;;;;;;;5048390;28;20037;-65
2022/03/13 04:36:10;;;;;;;14.38;8.55;;;;;;;;;;5049286;28;20240;-66
2022/03/13 04:38:36;;;;;;;15.40;8.63;;;;;;;;;;5049724;28;20028;-65
2022/03/13 04:41:01;;;;;;;17.17;9.10;;;;;;;;;;5049120;28;20397;-66
2022/03/13 04:43:27;;;;;;;18.60;9.05;;;;;;;;;;5049596;28;20110;-65
2022/03/13 04:45:53;;;;;;;17.65;8.70;;;;;;;;;;5048900;28;20033;-65
2022/03/13 04:48:18;;;;;;;14.80;8.13;;;;;;;;;;5051411;28;20440;-65
2022/03/13 04:50:45;;;;;;;16.30;8.60;;;;;;;;;;5050353;28;20029;-65
2022/03/13 04:53:11;;;;;;;22.63;9.07;;;;;;;;;;5051528;28;20588;-66
2022/03/13 04:55:37;;;;;;;14.20;8.35;;;;;;;;;;5050102;28;20167;-66
2022/03/13 04:58:03;;;;;;;15.18;8.68;;;;;;;;;;5049291;28;20116;-65
2022/03/13 05:00:28;;;;;;;15.95;8.55;;;;;;;;;;5045736;28;20067;-65
2022/03/13 05:02:55;;;;;;;14.60;8.23;;;;;;;;;;5052853;28;20463;-64
2022/03/13 05:05:21;;;;;;;15.23;8.27;;;;;;;;;;5046816;28;20098;-65
2022/03/13 05:07:47;;;;;;;15.75;8.88;;;;;;;;;;5050627;28;20036;-66
2022/03/13 05:10:12;;;;;;;17.30;8.13;;;;;;;;;;5049412;28;20036;-66
2022/03/13 05:12:37;;;;;;;15.68;8.43;;;;;;;;;;5048739;28;20029;-65
2022/03/13 05:15:03;;;;;;;19.10;9.20;;;;;;;;;;5048624;28;20039;-64
2022/03/13 05:17:28;;;;;;;19.95;10.10;;;;;;;;;;5048473;28;20051;-64
2022/03/13 05:19:54;;;;;;;17.27;9.23;;;;;;;;;;5048118;28;20052;-63
2022/03/13 05:22:19;;;;;;;17.52;8.75;;;;;;;;;;5073260;28;20032;-65
2022/03/13 05:24:46;;;;;;;17.40;8.93;;;;;;;;;;5065650;28;20032;-66
2022/03/13 05:27:11;;;;;;;17.55;8.93;;;;;;;;;;5058387;28;20053;-64
2022/03/13 05:29:37;;;;;;;14.50;8.50;;;;;;;;;;5051634;28;20060;-65
2022/03/13 05:32:02;;;;;;;16.80;8.50;;;;;;;;;;5052427;28;20033;-64
2022/03/13 05:34:27;;;;;;;15.65;8.50;;;;;;;;;;5054390;28;20032;-65
2022/03/13 05:36:53;;;;;;;14.77;8.02;;;;;;;;;;5053356;28;20041;-65
2022/03/13 05:39:19;;;;;;;19.55;10.38;;;;;;;;;;5052302;28;20037;-66
2022/03/13 05:41:44;;;;;;;18.30;9.02;;;;;;;;;;5057045;28;20033;-65
2022/03/13 05:44:10;;;;;;;16.10;8.70;;;;;;;;;;5054679;28;20134;-65
2022/03/13 05:46:36;;;;;;;19.73;8.25;;;;;;;;;;5054095;28;20427;-65
2022/03/13 05:49:03;;;;;;;14.90;8.50;;;;;;;;;;5053831;28;20119;-65
2022/03/13 05:51:30;;;;;;;14.15;8.18;;;;;;;;;;5065398;28;20033;-65
2022/03/13 05:53:56;;;;;;;16.00;8.85;;;;;;;;;;5033462;28;20033;-64
2022/03/13 05:56:21;;;;;;;18.35;8.68;;;;;;;;;;5062852;28;20025;-67
2022/03/13 05:58:46;;;;;;;15.38;8.23;;;;;;;;;;5057872;28;20270;-65
2022/03/13 06:01:12;;;;;;;16.20;8.65;;;;;;;;;;5050281;28;20048;-64
2022/03/13 06:03:38;;;;;;;15.75;8.15;;;;;;;;;;5052718;28;20029;-64
2022/03/13 06:06:04;;;;;;;17.67;8.75;;;;;;;;;;5051453;28;20158;-64
2022/03/13 06:08:30;;;;;;;17.77;8.32;;;;;;;;;;5052026;28;20557;-64
2022/03/13 06:10:57;;;;;;;15.80;8.35;;;;;;;;;;5052357;28;20021;-62
2022/03/13 06:13:24;;;;;;;17.77;8.77;;;;;;;;;;5051805;28;20128;-65
2022/03/13 06:15:50;;;;;;;15.10;8.48;;;;;;;;;;5051897;28;20040;-66
2022/03/13 06:18:15;;;;;;;17.92;9.32;;;;;;;;;;5052221;28;20029;-65
2022/03/13 06:20:41;;;;;;;17.55;9.40;;;;;;;;;;5053608;28;20386;-64
2022/03/13 06:23:08;;;;;;;21.27;10.38;;;;;;;;;;5049855;28;20037;-64
2022/03/13 06:25:34;;;;;;;15.68;8.52;;;;;;;;;;5039266;28;20033;-65
2022/03/13 06:27:59;;;;;;;17.33;9.25;;;;;;;;;;5051862;28;20536;-65
2022/03/13 06:30:25;;;;;;;21.92;9.52;;;;;;;;;;5052703;28;20025;-65
2022/03/13 06:32:53;;;;;;;23.45;10.52;;;;;;;;;;5052670;28;20037;-65
2022/03/13 06:35:21;;;;;;;18.05;10.00;;;;;;;;;;5052054;28;20144;-65
2022/03/13 06:37:49;;;;;;;20.95;11.10;;;;;;;;;;5052012;28;20194;-64
2022/03/13 06:40:19;;;;;;;20.80;10.52;;;;;;;;;;5051650;28;20036;-65
2022/03/13 06:42:45;;;;;;;20.23;10.80;;;;;;;;;;5054047;28;20131;-64
2022/03/13 06:45:11;;;;;;;19.60;9.98;;;;;;;;;;5051842;28;20639;-65
2022/03/13 06:47:37;;;;;;;18.70;9.95;;;;;;;;;;5051064;28;20481;-64
2022/03/13 06:50:03;;;;;;;20.88;10.13;;;;;;;;;;5051803;28;20029;-65
2022/03/13 06:52:29;;;;;;;20.90;9.07;;;;;;;;;;5059589;28;20029;-65
2022/03/13 06:54:54;;;;;;;17.77;9.05;;;;;;;;;;5069820;28;20081;-65
2022/03/13 06:57:20;;;;;;;17.00;8.65;;;;;;;;;;5070231;28;20044;-66
2022/03/13 06:59:46;;;;;;;20.02;8.93;;;;;;;;;;5061629;28;20033;-65
2022/03/13 07:02:13;;;;;;;17.05;8.70;;;;;;;;;;5046956;28;20481;-65
2022/03/13 07:04:39;;;;;;;16.60;8.75;;;;;;;;;;5052532;28;20043;-70
2022/03/13 07:07:04;;;;;;;16.70;8.75;;;;;;;;;;5051869;28;20029;-70
2022/03/13 07:09:30;;;;;;;16.33;8.80;;;;;;;;;;5050865;28;20163;-70
2022/03/13 07:11:55;;;;;;;17.35;9.65;;;;;;;;;;5052548;28;20033;-72
2022/03/13 07:14:21;;;;;;;17.40;9.40;;;;;;;;;;5050504;28;20055;-72
2022/03/13 07:16:47;;;;;;;14.15;8.02;;;;;;;;;;5051329;28;20464;-71
2022/03/13 07:19:13;;;;;;;19.30;9.20;;;;;;;;;;5051889;28;20115;-72
2022/03/13 07:21:39;;;;;;;17.45;8.95;;;;;;;;;;5054489;28;20405;-71
2022/03/13 07:24:05;;;;;;;15.60;8.73;;;;;;;;;;5067063;28;20409;-72
2022/03/13 07:26:32;;;;;;;15.73;8.55;;;;;;;;;;5052115;28;20482;-70
2022/03/13 07:28:57;;;;;;;15.73;8.82;;;;;;;;;;5051818;28;20037;-64
2022/03/13 07:31:23;;;;;;;15.68;8.98;;;;;;;;;;5052033;28;20120;-71
2022/03/13 07:33:48;;;;;;;16.90;9.27;;;;;;;;;;5052077;28;20025;-72
2022/03/13 07:36:14;;;;;;;14.38;8.68;;;;;;;;;;5050981;28;20037;-71
2022/03/13 07:38:39;;;;;;;18.30;8.88;;;;;;;;;;5068511;28;20036;-70
2022/03/13 07:41:05;;;;;;;15.90;9.38;;;;;;;;;;5060134;28;20024;-69
2022/03/13 07:43:31;;;;;;;21.70;9.48;;;;;;;;;;5059660;28;20059;-70
2022/03/13 07:45:57;;;;;;;16.33;9.25;;;;;;;;;;5064042;28;20044;-70
2022/03/13 07:48:23;;;;;;;15.95;9.18;;;;;;;;;;5049095;28;20037;-71
2022/03/13 07:50:48;;;;;;;17.25;9.25;;;;;;;;;;5052387;28;20045;-71
2022/03/13 07:53:14;;;;;;;18.33;8.82;;;;;;;;;;5051138;28;20028;-71
2022/03/13 07:55:39;;;;;;;17.38;9.20;;;;;;;;;;5050942;28;20147;-69
2022/03/13 07:58:04;;;;;;;18.50;9.45;;;;;;;;;;5054954;28;20382;-70
2022/03/13 08:00:30;;;;;;;17.08;9.05;;;;;;;;;;5052784;28;20079;-69
2022/03/13 08:02:55;;;;;;;19.52;8.75;;;;;;;;;;5070287;28;20089;-69
2022/03/13 08:05:21;;;;;;;17.20;8.70;;;;;;;;;;5071241;28;20032;-71
2022/03/13 08:07:49;;;;;;;14.98;8.55;;;;;;;;;;5049302;28;20163;-70
2022/03/13 08:10:20;;;;;;;15.65;8.95;;;;;;;;;;5055017;28;20516;-70
2022/03/13 08:12:45;;;;;;;15.18;8.68;;;;;;;;;;5052437;28;20481;-70
2022/03/13 08:15:11;;;;;;;17.02;8.57;;;;;;;;;;5064604;28;20037;-70
2022/03/13 08:17:37;;;;;;;16.20;8.32;;;;;;;;;;5051220;28;20039;-70
2022/03/13 08:20:04;;;;;;;15.50;9.07;;;;;;;;;;5054811;28;20048;-68
2022/03/13 08:22:29;;;;;;;18.00;8.77;;;;;;;;;;5053844;28;20033;-71
2022/03/13 08:24:54;;;;;;;13.75;8.90;;;;;;;;;;5052011;28;20044;-71
2022/03/13 08:27:20;;;;;;;14.40;8.57;;;;;;;;;;5050804;28;20025;-70
2022/03/13 08:29:46;;;;;;;17.85;9.15;;;;;;;;;;5051042;28;20086;-71
2022/03/13 08:32:11;;;;;;;15.30;8.38;;;;;;;;;;5058375;28;20390;-71
2022/03/13 08:34:38;;;;;;;14.68;8.80;;;;;;;;;;5071224;28;20547;-70
2022/03/13 08:37:04;;;;;;;15.27;8.75;;;;;;;;;;5060779;28;20040;-66
2022/03/13 08:39:30;;;;;;;17.67;8.70;;;;;;;;;;5054174;28;20029;-70
2022/03/13 08:41:55;;;;;;;17.48;8.88;;;;;;;;;;5045860;28;20399;-70
2022/03/13 08:44:21;;;;;;;15.60;8.65;;;;;;;;;;5069673;28;20024;-70
2022/03/13 08:46:46;;;;;;;16.20;9.20;;;;;;;;;;5053607;28;20359;-70
2022/03/13 08:49:12;;;;;;;14.63;8.80;;;;;;;;;;5048768;28;20123;-71
2022/03/13 08:51:38;;;;;;;17.80;8.88;;;;;;;;;;5052223;28;20033;-71
2022/03/13 08:54:03;;;;;;;18.60;9.40;;;;;;;;;;5041227;28;20044;-66
2022/03/13 08:56:29;;;;;;;17.08;9.20;;;;;;;;;;5054482;28;20474;-70
2022/03/13 08:58:55;;;;;;;16.30;9.15;;;;;;;;;;5061133;28;20068;-69
2022/03/13 09:01:22;;;;;;;14.90;8.95;;;;;;;;;;5053717;28;20179;-70
2022/03/13 09:03:48;;;;;;;16.75;8.77;;;;;;;;;;5066215;28;20554;-70
2022/03/13 09:06:13;;;;;;;16.50;9.27;;;;;;;;;;5058455;28;20108;-69
2022/03/13 09:08:39;;;;;;;16.02;9.80;;;;;;;;;;5053866;28;20029;-69
2022/03/13 09:11:04;;;;;;;16.45;9.40;;;;;;;;;;5059177;28;20497;-69
2022/03/13 09:13:30;;;;;;;20.65;9.85;;;;;;;;;;5055158;28;20045;-71
2022/03/13 09:15:56;;;;;;;13.82;8.75;;;;;;;;;;5057563;28;20055;-70
2022/03/13 09:18:22;;;;;;;17.42;9.68;;;;;;;;;;5054145;28;20040;-70
2022/03/13 09:20:48;;;;;;;16.45;9.27;;;;;;;;;;5059175;28;20049;-72
2022/03/13 09:23:13;;;;;;;15.43;9.45;;;;;;;;;;5059396;28;20449;-70
2022/03/13 09:25:39;;;;;;;16.02;9.05;;;;;;;;;;5054868;28;20466;-70
2022/03/13 09:28:05;;;;;;;17.98;9.82;;;;;;;;;;5054578;28;20531;-67
2022/03/13 09:30:31;;;;;;;16.58;9.38;;;;;;;;;;5052917;28;20036;-70
2022/03/13 09:32:58;;;;;;;15.30;8.70;;;;;;;;;;5054720;28;20385;-70
2022/03/13 09:35:23;;;;;;;15.98;9.02;;;;;;;;;;5053206;28;20145;-69
2022/03/13 09:37:49;;;;;;;18.13;9.25;;;;;;;;;;5069162;28;20056;-71
2022/03/13 09:40:17;;;;;;;16.95;9.55;;;;;;;;;;5068731;28;20032;-69
2022/03/13 09:42:42;;;;;;;19.42;10.32;;;;;;;;;;5055592;28;20029;-71
2022/03/13 09:45:08;;;;;;;15.95;9.63;;;;;;;;;;5053307;28;20037;-66
2022/03/13 09:47:36;;;;;;;17.48;9.95;;;;;;;;;;5054614;28;20037;-70
2022/03/13 09:50:01;;;;;;;15.98;9.85;;;;;;;;;;5052862;28;20501;-72
2022/03/13 09:52:27;;;;;;;17.20;10.60;;;;;;;;;;5065250;28;20032;-72
2022/03/13 09:54:52;;;;;;;16.73;10.13;;;;;;;;;;5063881;28;20041;-71
2022/03/13 09:57:19;;;;;;;19.50;10.38;;;;;;;;;;5051529;28;20393;-71
2022/03/13 09:59:46;;;;;;;23.42;10.52;;;;;;;;;;5053373;28;20025;-71
2022/03/13 10:02:11;;;;;;;16.73;10.35;;;;;;;;;;5052936;28;20474;-69
2022/03/13 10:04:37;;;;;;;18.67;10.13;;;;;;;;;;5053599;28;20108;-71
2022/03/13 10:07:07;;;;;;;17.30;9.05;;;;;;;;;;5064397;28;20048;-69
2022/03/13 10:09:38;;;;;;;15.48;10.10;;;;;;;;;;5054411;28;20044;-69
2022/03/13 10:12:16;;;;;;;15.98;9.60;;;;;;;;;;5052603;28;20075;-70
2022/03/13 10:15:03;;;;;;;16.88;10.02;;;;;;;;;;5053168;28;20104;-70
2022/03/13 10:17:34;;;;;;;15.90;10.30;;;;;;;;;;5052865;28;20654;-72
2022/03/13 10:20:15;;;;;;;18.73;10.05;;;;;;;;;;5052297;28;20102;-71
2022/03/13 10:22:45;;;;;;;16.45;9.88;;;;;;;;;;5054746;28;20724;-71
2022/03/13 10:25:13;;;;;;;16.10;10.15;;;;;;;;;;5055141;28;20044;-74
2022/03/13 10:27:44;;;;;;;16.80;10.20;;;;;;;;;;5068759;28;20482;-71
2022/03/13 10:30:13;;;;;;;16.30;10.43;;;;;;;;;;5067501;28;20363;-75
2022/03/13 10:32:39;;;;;;;16.73;10.73;;;;;;;;;;5053177;28;20033;-70
2022/03/13 10:35:05;;;;;;;17.05;10.55;;;;;;;;;;5051247;28;20029;-70
2022/03/13 10:37:37;;;;;;;17.98;11.13;;;;;;;;;;5054588;28;20021;-69
2022/03/13 10:40:07;;;;;;;15.98;10.27;;;;;;;;;;5056770;28;20047;-70
2022/03/13 10:42:41;;;;;;;16.65;10.02;;;;;;;;;;5051523;28;20025;-69
2022/03/13 10:45:10;;;;;;;18.35;10.23;;;;;;;;;;5071143;28;20040;-69
2022/03/13 10:47:37;;;;;;;16.75;9.98;;;;;;;;;;5056506;28;20043;-69
2022/03/13 10:50:03;;;;;;;15.25;9.85;;;;;;;;;;5051734;28;20029;-70
2022/03/13 10:52:31;;;;;;;18.63;10.55;;;;;;;;;;5052806;28;20424;-69
2022/03/13 10:55:41;;;;;;;18.35;10.07;;;;;;;;;;5052666;28;20478;-70
2022/03/13 10:58:05;;;;;;;16.10;10.00;;;;;;;;;;5050505;28;20041;-69
2022/03/13 11:00:31;;;;;;;16.52;10.10;;;;;;;;;;5041628;28;20040;-71
2022/03/13 11:03:12;;;;;;;18.00;10.68;;;;;;;;;;5054526;28;20033;-71
2022/03/13 11:05:39;;;;;;;17.10;9.60;;;;;;;;;;5052231;28;20040;-72
2022/03/13 11:08:04;;;;;;;17.67;9.85;;;;;;;;;;5052523;28;20025;-70
2022/03/13 11:10:30;;;;;;;15.30;9.95;;;;;;;;;;5052029;28;20025;-72
2022/03/13 11:12:57;;;;;;;13.52;9.18;;;;;;;;;;5054545;28;20044;-72
2022/03/13 11:15:27;;;;;;;16.85;9.98;;;;;;;;;;5050659;28;20036;-71
2022/03/13 11:17:55;;;;;;;15.93;10.07;;;;;;;;;;5052311;28;20044;-73
2022/03/13 11:20:21;;;;;;;15.45;10.20;;;;;;;;;;5055344;28;20052;-68
2022/03/13 11:22:46;;;;;;;15.68;10.00;;;;;;;;;;5051704;28;20034;-70
2022/03/13 11:25:12;;;;;;;15.30;9.90;;;;;;;;;;5067668;28;20436;-67
2022/03/13 11:27:40;;;;;;;16.35;10.10;;;;;;;;;;5053978;28;20068;-69
2022/03/13 11:30:08;;;;;;;15.68;10.05;;;;;;;;;;5051702;28;20450;-68
2022/03/13 11:32:44;;;;;;;17.42;11.07;;;;;;;;;;5050611;28;20067;-68
2022/03/13 11:35:15;;;;;;;18.13;11.38;;;;;;;;;;5053338;28;20032;-72
2022/03/13 11:37:42;;;;;;;15.20;10.00;;;;;;;;;;5052366;28;20029;-70
2022/03/13 11:40:10;;;;;;;15.05;10.35;;;;;;;;;;5052109;28;20037;-68
2022/03/13 11:43:14;;;;;;;16.88;10.23;;;;;;;;;;5051057;28;20730;-68
2022/03/13 11:45:46;;;;;;;13.65;9.48;;;;;;;;;;5018744;28;20050;-70
2022/03/13 11:48:13;;;;;;;15.23;10.15;;;;;;;;;;5033133;28;20029;-67
2022/03/13 11:50:47;;;;;;;15.55;9.50;;;;;;;;;;5052476;28;20085;-68
2022/03/13 11:53:17;;;;;;;13.30;9.55;;;;;;;;;;5051639;28;20051;-67
2022/03/13 11:56:02;;;;;;;14.00;9.15;;;;;;;;;;5051583;28;20102;-67
2022/03/13 11:58:47;;;;;;;14.23;9.35;;;;;;;;;;5050768;28;20112;-67
2022/03/13 12:01:20;;;;;;;12.80;8.70;;;;;;;;;;5054106;28;20039;-67
2022/03/13 12:04:01;;;;;;;12.20;8.48;;;;;;;;;;5061647;28;20037;-70
2022/03/13 12:06:57;;;;;;;13.65;9.05;;;;;;;;;;5053808;28;20158;-68
2022/03/13 12:09:30;;;;;;;13.02;8.57;;;;;;;;;;5048513;28;20128;-67
2022/03/13 12:12:00;;;;;;;12.50;8.10;;;;;;;;;;5058818;28;20107;-68
2022/03/13 12:15:02;;;;;;;10.55;7.32;;;;;;;;;;5029328;28;20391;-68
2022/03/13 12:17:29;;;;;;;11.57;7.20;;;;;;;;;;5042408;28;20029;-68
2022/03/13 12:19:57;;;;;;;11.48;6.88;;;;;;;;;;5051158;28;20126;-67
2022/03/13 12:22:25;;;;;;;11.93;7.32;;;;;;;;;;5048262;28;20025;-67
2022/03/13 12:25:12;;;;;;;11.13;7.05;;;;;;;;;;5031664;28;20036;-69
2022/03/13 12:27:45;;;;;;;11.48;6.93;;;;;;;;;;5040259;28;20079;-67
2022/03/13 12:30:12;;;;;;;12.63;7.05;;;;;;;;;;5053009;28;20102;-67
2022/03/13 12:32:37;;;;;;;9.93;6.72;;;;;;;;;;5054921;28;20025;-67
2022/03/13 12:35:04;;;;;;;12.75;6.40;;;;;;;;;;5056848;28;20025;-67
2022/03/13 12:37:30;;;;;;;9.07;6.70;;;;;;;;;;5051944;28;20029;-68
2022/03/13 12:39:58;;;;;;;10.20;6.68;;;;;;;;;;5053336;28;20029;-67
2022/03/13 12:42:26;;;;;;;7.57;5.72;;;;;;;;;;5048180;28;20116;-65
2022/03/13 12:45:12;;;;;;;8.27;5.82;;;;;;;;;;5056619;28;20029;-68
2022/03/13 12:47:42;;;;;;;8.32;5.45;;;;;;;;;;5054195;28;20029;-68
2022/03/13 12:50:29;;;;;;;7.37;5.30;;;;;;;;;;5055425;28;20025;-66
2022/03/13 12:53:00;;;;;;;9.63;5.80;;;;;;;;;;5055480;28;20265;-67
2022/03/13 12:55:26;;;;;;;7.57;5.70;;;;;;;;;;5050397;28;20471;-67
2022/03/13 12:57:54;;;;;;;8.75;6.47;;;;;;;;;;5054000;28;20033;-67
2022/03/13 13:00:30;;;;;;;10.50;6.43;;;;;;;;;;5057302;28;20115;-65
2022/03/13 13:02:58;;;;;;;9.40;6.45;;;;;;;;;;5054254;28;20093;-67
2022/03/13 13:05:23;;;;;;;9.02;6.32;;;;;;;;;;5052089;28;20036;-66
2022/03/13 13:07:49;;;;;;;9.55;7.45;;;;;;;;;;5058658;28;20028;-67
2022/03/13 13:10:15;;;;;;;8.73;6.00;;;;;;;;;;5057751;28;20057;-68
2022/03/13 13:12:41;;;;;;;9.25;6.55;;;;;;;;;;5055100;28;20808;-68
2022/03/13 13:15:09;;;;;;;9.68;6.70;;;;;;;;;;5050879;28;20029;-68
2022/03/13 13:17:35;;;;;;;9.23;6.50;;;;;;;;;;5052475;28;20029;-67
2022/03/13 13:20:17;;;;;;;10.68;6.88;;;;;;;;;;5061980;28;20053;-67
2022/03/13 13:22:44;;;;;;;10.60;6.53;;;;;;;;;;5056822;28;20029;-68
2022/03/13 13:25:12;;;;;;;9.27;6.93;;;;;;;;;;5066735;28;20056;-67
2022/03/13 13:28:11;;;;;;;8.82;6.32;;;;;;;;;;5072634;28;20831;-67
2022/03/13 13:30:37;;;;;;;8.93;6.20;;;;;;;;;;5021145;28;20045;-67
2022/03/13 13:33:14;;;;;;;8.18;6.18;;;;;;;;;;5037409;28;20030;-67
2022/03/13 13:35:49;;;;;;;8.43;5.97;;;;;;;;;;5051895;28;20470;-66
2022/03/13 13:38:27;;;;;;;7.97;5.88;;;;;;;;;;5058682;28;20028;-67
2022/03/13 13:40:52;;;;;;;9.32;6.00;;;;;;;;;;5074900;28;20040;-67
2022/03/13 13:43:41;;;;;;;9.48;5.85;;;;;;;;;;5068451;28;20041;-67
2022/03/13 13:46:11;;;;;;;8.50;5.45;;;;;;;;;;5057273;28;20078;-66
2022/03/13 13:48:39;;;;;;;8.85;6.13;;;;;;;;;;5052752;28;20116;-67
2022/03/13 13:51:21;;;;;;;9.35;6.90;;;;;;;;;;5053602;28;20033;-67
2022/03/13 13:54:11;;;;;;;9.45;6.50;;;;;;;;;;5053301;28;20052;-66
2022/03/13 13:56:47;;;;;;;8.68;6.13;;;;;;;;;;5052175;28;20124;-67
2022/03/13 13:59:28;;;;;;;8.93;5.43;;;;;;;;;;5052782;28;20371;-66
2022/03/13 14:02:02;;;;;;;7.78;5.07;;;;;;;;;;5053917;28;20435;-67
2022/03/13 14:04:29;;;;;;;10.20;5.50;;;;;;;;;;5052791;28;20159;-65
2022/03/13 14:06:55;;;;;;;7.60;5.25;;;;;;;;;;5053832;28;20028;-67
2022/03/13 14:09:20;;;;;;;8.15;5.47;;;;;;;;;;5051661;28;20033;-71
2022/03/13 14:11:48;;;;;;;8.05;5.13;;;;;;;;;;5055553;28;20029;-69
2022/03/13 14:14:13;;;;;;;8.57;5.30;;;;;;;;;;5060123;28;20071;-69
2022/03/13 14:16:39;;;;;;;7.15;5.00;;;;;;;;;;5066182;28;20394;-69
2022/03/13 14:19:05;;;;;;;7.72;5.50;;;;;;;;;;5053370;28;20053;-70
2022/03/13 14:21:33;;;;;;;6.45;4.63;;;;;;;;;;5052066;28;20029;-70
2022/03/13 14:23:59;;;;;;;7.95;4.82;;;;;;;;;;5053496;28;20079;-69
2022/03/13 14:26:24;;;;;;;6.53;4.80;;;;;;;;;;5059980;28;20057;-68
2022/03/13 14:28:50;;;;;;;9.00;5.18;;;;;;;;;;5054666;28;20032;-69
2022/03/13 14:31:15;;;;;;;7.72;5.07;;;;;;;;;;5059815;28;20033;-68
2022/03/13 14:33:42;;;;;;;6.68;5.00;;;;;;;;;;5050902;28;20036;-69
2022/03/13 14:36:08;;;;;;;7.05;5.07;;;;;;;;;;5055197;28;20459;-68